Time;durP1;ratioP1;P1;durP2;ratioP2;P2;SDS_P1;SDS_P2;PMS_P1;PMS_P2;Temp;Humidity;BMP_temperature;BMP_pressure;BME280_temperature;BME280_humidity;BME280_pressure;Samples;Min_cycle;Max_cycle;Signal;HPM_P1;HPM_P2
2021/11/10 00:00:51;;;;;;;1.48;0.90;;;8.00;52.80;;;;;;4925998;29;20047;-88
2021/11/10 00:03:17;;;;;;;1.35;1.10;;;8.00;52.80;;;;;;4920368;29;20040;-91
2021/11/10 00:05:43;;;;;;;1.42;0.98;;;8.00;52.80;;;;;;4921796;29;20050;-87
2021/11/10 00:08:13;;;;;;;1.90;0.80;;;7.90;52.80;;;;;;4924857;29;20570;-89
2021/11/10 00:10:39;;;;;;;1.15;1.02;;;8.00;52.80;;;;;;4918260;29;20079;-84
2021/11/10 00:13:18;;;;;;;2.97;1.25;;;7.90;52.80;;;;;;4920324;29;20058;-86
2021/11/10 00:15:46;;;;;;;2.45;0.85;;;7.90;52.80;;;;;;4904259;29;20038;-88
2021/11/10 00:18:14;;;;;;;2.10;1.10;;;8.00;52.80;;;;;;4936612;28;20042;-78
2021/11/10 00:20:41;;;;;;;1.20;1.10;;;7.90;52.80;;;;;;4909979;29;20047;-86
2021/11/10 00:23:07;;;;;;;1.10;1.00;;;7.90;52.80;;;;;;4921871;29;21205;-77
2021/11/10 00:25:33;;;;;;;1.45;1.00;;;7.90;52.80;;;;;;4924535;29;20035;-79
2021/11/10 00:27:59;;;;;;;0.90;0.90;;;7.90;52.80;;;;;;4945526;29;20035;-87
2021/11/10 00:30:25;;;;;;;2.42;1.10;;;7.90;53.00;;;;;;4935865;29;20118;-88
2021/11/10 00:32:50;;;;;;;1.17;1.00;;;7.90;53.00;;;;;;4902238;29;20032;-83
2021/11/10 00:35:16;;;;;;;2.28;1.00;;;7.90;53.10;;;;;;4923149;29;20043;-88
2021/11/10 00:37:43;;;;;;;1.10;1.00;;;7.80;52.90;;;;;;4925387;29;20126;-86
2021/11/10 00:40:09;;;;;;;1.88;1.00;;;7.90;53.10;;;;;;4925727;29;20127;-84
2021/11/10 00:42:35;;;;;;;1.13;0.82;;;7.90;53.20;;;;;;4925854;29;20564;-86
2021/11/10 00:45:01;;;;;;;0.90;0.80;;;7.90;53.10;;;;;;4892575;29;20115;-87
2021/11/10 00:47:27;;;;;;;0.82;0.82;;;7.90;53.20;;;;;;4924757;29;20662;-81
2021/11/10 00:49:53;;;;;;;0.85;0.80;;;7.90;53.20;;;;;;4925038;29;20047;-86
2021/11/10 00:52:19;;;;;;;2.25;0.90;;;7.90;53.30;;;;;;4907386;29;20032;-87
2021/11/10 00:54:45;;;;;;;1.98;0.85;;;7.90;53.30;;;;;;4924865;29;20043;-89
2021/11/10 00:57:10;;;;;;;2.10;0.90;;;7.90;53.20;;;;;;4907702;29;20043;-85
2021/11/10 00:59:36;;;;;;;0.75;0.70;;;7.90;53.20;;;;;;4922342;29;20055;-88
2021/11/10 01:02:03;;;;;;;0.90;0.90;;;7.90;53.20;;;;;;4904188;29;20044;-86
2021/11/10 01:04:29;;;;;;;1.27;0.80;;;7.90;53.10;;;;;;4923168;29;20577;-88
2021/11/10 01:06:54;;;;;;;1.08;0.77;;;7.90;53.10;;;;;;4923562;29;20063;-87
2021/11/10 01:09:24;;;;;;;0.85;0.80;;;7.90;53.00;;;;;;4907663;29;20122;-87
2021/11/10 01:11:50;;;;;;;0.70;0.57;;;7.90;53.00;;;;;;4925676;29;20127;-86
2021/11/10 01:14:17;;;;;;;1.15;0.88;;;7.90;53.00;;;;;;4909512;29;20039;-86
2021/11/10 01:16:45;;;;;;;1.45;0.77;;;7.90;53.00;;;;;;4906437;29;20027;-89
2021/11/10 01:19:14;;;;;;;0.90;0.80;;;7.90;53.00;;;;;;4894374;29;20073;-89
2021/11/10 01:21:40;;;;;;;1.17;0.80;;;7.90;52.90;;;;;;4925926;29;20067;-84
2021/11/10 01:24:06;;;;;;;0.70;0.70;;;7.90;52.80;;;;;;4932718;29;21256;-81
2021/11/10 01:26:34;;;;;;;0.60;0.60;;;7.90;52.80;;;;;;4906427;28;20019;-83
2021/11/10 01:29:00;;;;;;;0.75;0.75;;;7.90;52.70;;;;;;4947743;29;20023;-81
2021/11/10 01:31:27;;;;;;;0.70;0.70;;;7.90;52.60;;;;;;4915831;29;20039;-81
2021/11/10 01:33:54;;;;;;;0.73;0.60;;;7.90;52.80;;;;;;4931456;29;20045;-81
2021/11/10 01:36:20;;;;;;;0.65;0.60;;;7.90;52.80;;;;;;4946940;28;20016;-81
2021/11/10 01:38:47;;;;;;;1.25;0.60;;;7.90;52.90;;;;;;4931654;28;20028;-78
2021/11/10 01:41:13;;;;;;;1.00;0.90;;;7.90;52.80;;;;;;4926819;29;20250;-86
2021/11/10 01:43:42;;;;;;;0.90;0.90;;;7.90;52.80;;;;;;4919617;29;20043;-89
2021/11/10 01:46:08;;;;;;;1.13;0.90;;;7.90;52.80;;;;;;4908450;29;20042;-90
2021/11/10 01:48:37;;;;;;;0.85;0.60;;;7.90;52.70;;;;;;4923243;29;20067;-89
2021/11/10 01:51:05;;;;;;;1.10;0.70;;;7.90;52.50;;;;;;4923512;29;20071;-88
2021/11/10 01:53:32;;;;;;;0.80;0.80;;;7.90;52.70;;;;;;4907336;29;20491;-89
2021/11/10 01:55:59;;;;;;;0.95;0.70;;;7.90;52.70;;;;;;4892146;29;20028;-86
2021/11/10 01:58:26;;;;;;;1.83;0.70;;;7.90;52.70;;;;;;4906967;29;20111;-88
2021/11/10 02:00:54;;;;;;;1.23;1.00;;;7.90;52.80;;;;;;4906613;29;20179;-87
2021/11/10 02:03:20;;;;;;;0.70;0.68;;;7.90;52.70;;;;;;4903854;29;20035;-87
2021/11/10 02:05:49;;;;;;;1.77;1.08;;;7.90;52.80;;;;;;4921214;29;20048;-88
2021/11/10 02:08:34;;;;;;;0.50;0.50;;;7.80;52.80;;;;;;4921561;29;20090;-85
2021/11/10 02:11:06;;;;;;;0.90;0.70;;;7.90;52.70;;;;;;4904836;29;20040;-86
2021/11/10 02:13:32;;;;;;;1.75;0.80;;;7.90;52.80;;;;;;4893508;29;20028;-88
2021/11/10 02:16:00;;;;;;;0.98;0.70;;;7.80;52.70;;;;;;4904363;29;20032;-87
2021/11/10 02:18:28;;;;;;;1.02;0.80;;;7.80;52.70;;;;;;4904571;29;20423;-86
2021/11/10 02:20:58;;;;;;;1.23;1.00;;;7.90;52.80;;;;;;4903612;29;20032;-88
2021/11/10 02:23:24;;;;;;;1.17;1.08;;;7.80;52.90;;;;;;4924147;29;20101;-81
2021/11/10 02:25:57;;;;;;;0.90;0.68;;;7.80;52.90;;;;;;4933116;29;20035;-88
2021/11/10 02:28:23;;;;;;;1.10;0.90;;;7.90;52.90;;;;;;4920843;29;20040;-85
2021/11/10 02:30:49;;;;;;;0.90;0.75;;;7.80;52.90;;;;;;4903860;29;20034;-88
2021/11/10 02:33:26;;;;;;;1.15;0.70;;;7.80;53.00;;;;;;4922241;29;20511;-86
2021/11/10 02:36:02;;;;;;;1.98;0.95;;;7.90;52.90;;;;;;4904552;29;20036;-90
2021/11/10 02:38:28;;;;;;;1.75;1.00;;;7.90;52.80;;;;;;4903270;29;20024;-89
2021/11/10 02:40:57;;;;;;;1.42;0.90;;;7.80;52.80;;;;;;4904680;29;20047;-89
2021/11/10 02:43:23;;;;;;;2.25;1.00;;;7.80;52.70;;;;;;4903930;29;20040;-84
2021/11/10 02:45:49;;;;;;;0.70;0.70;;;7.80;52.90;;;;;;4920311;29;20116;-88
2021/11/10 02:48:16;;;;;;;0.85;0.77;;;7.80;52.80;;;;;;4902982;29;20554;-89
2021/11/10 02:50:42;;;;;;;1.13;1.10;;;7.80;52.80;;;;;;4918827;29;20039;-89
2021/11/10 02:53:08;;;;;;;1.20;1.10;;;7.80;52.80;;;;;;4901755;29;20051;-88
2021/11/10 02:55:34;;;;;;;1.13;0.95;;;7.80;52.80;;;;;;4904562;29;20628;-89
2021/11/10 02:58:00;;;;;;;0.95;0.90;;;7.80;52.80;;;;;;4920101;29;20058;-89
2021/11/10 03:00:27;;;;;;;1.30;1.10;;;7.80;52.60;;;;;;4904049;29;20534;-87
2021/11/10 03:02:56;;;;;;;1.23;0.80;;;7.80;52.80;;;;;;4919969;29;20177;-89
2021/11/10 03:05:25;;;;;;;1.15;0.70;;;7.80;52.80;;;;;;4903637;29;20590;-83
2021/11/10 03:07:52;;;;;;;1.20;1.13;;;7.80;52.80;;;;;;4910540;29;20118;-89
2021/11/10 03:10:18;;;;;;;1.00;0.82;;;7.80;52.90;;;;;;4903018;29;20160;-89
2021/11/10 03:12:45;;;;;;;0.60;0.60;;;7.80;52.90;;;;;;4903399;29;20039;-90
2021/11/10 03:15:15;;;;;;;0.80;0.75;;;7.80;53.00;;;;;;4893597;29;20036;-88
2021/11/10 03:17:41;;;;;;;1.77;0.82;;;7.80;52.90;;;;;;4903369;29;20553;-87
2021/11/10 03:20:08;;;;;;;2.63;0.80;;;7.80;52.90;;;;;;4902545;29;20118;-89
2021/11/10 03:22:39;;;;;;;0.73;0.73;;;7.80;53.10;;;;;;4903037;29;20050;-88
2021/11/10 03:25:05;;;;;;;1.20;0.82;;;7.80;53.00;;;;;;4903146;29;20031;-85
2021/11/10 03:27:32;;;;;;;2.05;0.88;;;7.80;53.10;;;;;;4903421;29;20380;-88
2021/11/10 03:30:04;;;;;;;1.17;0.70;;;7.70;53.00;;;;;;4902459;29;20043;-82
2021/11/10 03:32:42;;;;;;;0.80;0.80;;;7.80;53.00;;;;;;4887990;29;20110;-85
2021/11/10 03:35:09;;;;;;;1.20;1.10;;;7.80;53.10;;;;;;4906471;29;20111;-85
2021/11/10 03:37:39;;;;;;;1.40;1.02;;;7.80;53.10;;;;;;4905526;29;20507;-87
2021/11/10 03:40:10;;;;;;;1.10;0.85;;;7.80;53.00;;;;;;4902589;29;20394;-87
2021/11/10 03:42:39;;;;;;;0.70;0.70;;;7.70;53.00;;;;;;4904311;29;20419;-94
2021/11/10 03:45:08;;;;;;;2.83;1.08;;;7.80;53.10;;;;;;4905941;29;20040;-88
2021/11/10 03:47:34;;;;;;;1.08;0.90;;;7.80;53.20;;;;;;4921295;29;20036;-93
2021/11/10 03:50:03;;;;;;;2.45;0.82;;;7.70;53.10;;;;;;4909590;29;20641;-89
2021/11/10 04:06:13;;;;;;;2.80;0.70;;;7.70;53.10;;;;;;5210456;23;20048;-92
2021/11/10 04:08:42;;;;;;;1.00;0.73;;;7.70;53.10;;;;;;4882572;29;20036;-93
2021/11/10 04:11:08;;;;;;;1.35;0.77;;;7.70;53.20;;;;;;5028180;23;20060;-89
2021/11/10 04:13:36;;;;;;;1.10;0.65;;;7.70;53.20;;;;;;4916916;29;20345;-83
2021/11/10 04:16:03;;;;;;;0.60;0.60;;;7.70;53.20;;;;;;4964312;23;20083;-94
2021/11/10 04:18:33;;;;;;;0.65;0.65;;;7.80;53.20;;;;;;4887204;29;20040;-91
2021/11/10 04:21:05;;;;;;;1.40;0.70;;;7.80;53.30;;;;;;4885514;29;20448;-84
2021/11/10 04:23:33;;;;;;;2.17;0.85;;;7.70;53.10;;;;;;4889648;29;20091;-93
2021/11/10 04:26:03;;;;;;;0.60;0.57;;;7.70;53.20;;;;;;4886262;29;20057;-87
2021/11/10 04:28:31;;;;;;;0.70;0.70;;;7.70;53.30;;;;;;4874015;29;20033;-91
2021/11/10 04:30:58;;;;;;;1.38;0.63;;;7.70;53.50;;;;;;4874032;29;20497;-93
2021/11/10 04:33:24;;;;;;;1.50;0.80;;;7.70;53.50;;;;;;4884271;29;21087;-85
2021/11/10 04:35:51;;;;;;;2.30;1.00;;;7.70;53.50;;;;;;4885792;29;20040;-89
2021/11/10 04:38:18;;;;;;;2.20;0.90;;;7.70;53.40;;;;;;4870162;29;20111;-90
2021/11/10 04:40:44;;;;;;;1.58;0.73;;;7.70;53.50;;;;;;4887251;29;20041;-87
2021/11/10 04:43:10;;;;;;;1.70;1.33;;;7.70;53.60;;;;;;4884435;29;20164;-92
2021/11/10 04:45:48;;;;;;;0.85;0.73;;;7.70;53.50;;;;;;4890737;29;20048;-89
2021/11/10 04:48:14;;;;;;;0.98;0.63;;;7.70;53.60;;;;;;4892075;29;20037;-91
2021/11/10 04:50:43;;;;;;;3.60;0.90;;;7.70;53.60;;;;;;4888347;29;20127;-89
2021/11/10 04:53:12;;;;;;;0.60;0.60;;;7.70;53.60;;;;;;4875456;29;20039;-90
2021/11/10 04:55:40;;;;;;;1.52;0.82;;;7.70;53.50;;;;;;4887311;29;20101;-92
2021/11/10 04:58:06;;;;;;;1.00;0.85;;;7.70;53.50;;;;;;4883854;29;20025;-90
2021/11/10 05:00:32;;;;;;;1.73;0.90;;;7.70;53.50;;;;;;4870525;29;20055;-92
2021/11/10 05:03:00;;;;;;;1.60;0.80;;;7.70;53.50;;;;;;4884440;29;20540;-88
2021/11/10 05:05:26;;;;;;;2.90;0.90;;;7.60;53.50;;;;;;4882566;29;20071;-91
2021/11/10 05:07:52;;;;;;;0.70;0.65;;;7.70;53.60;;;;;;4868143;29;20060;-88
2021/11/10 05:10:20;;;;;;;3.05;0.98;;;7.70;53.60;;;;;;4883731;29;20452;-87
2021/11/10 05:12:52;;;;;;;1.30;1.00;;;7.70;53.50;;;;;;4881790;29;20598;-88
2021/11/10 05:15:18;;;;;;;4.68;1.00;;;7.60;53.50;;;;;;4883489;29;20135;-89
2021/11/10 05:17:44;;;;;;;3.40;1.08;;;7.70;53.60;;;;;;4887466;29;20036;-82
2021/11/10 05:20:13;;;;;;;2.83;0.95;;;7.70;53.50;;;;;;4889301;29;20044;-89
2021/11/10 05:22:44;;;;;;;2.25;1.10;;;7.70;53.60;;;;;;4887254;29;20038;-82
2021/11/10 05:25:10;;;;;;;1.67;0.90;;;7.70;53.60;;;;;;4885367;29;20420;-90
2021/11/10 05:27:37;;;;;;;1.05;0.98;;;7.70;53.50;;;;;;4885276;29;20045;-85
2021/11/10 05:30:08;;;;;;;3.53;1.65;;;7.70;53.60;;;;;;4885385;29;20056;-90
2021/11/10 05:32:34;;;;;;;1.85;1.00;;;7.70;53.60;;;;;;4872991;29;20036;-89
2021/11/10 05:35:00;;;;;;;1.50;1.23;;;7.70;53.50;;;;;;4888709;29;20119;-89
2021/11/10 05:37:28;;;;;;;3.53;1.33;;;7.70;53.50;;;;;;4890805;29;20468;-90
2021/11/10 05:39:54;;;;;;;2.65;1.45;;;7.70;53.50;;;;;;4888462;29;20045;-89
2021/11/10 05:42:20;;;;;;;2.88;1.40;;;7.70;53.50;;;;;;4891619;29;20599;-86
2021/11/10 05:44:46;;;;;;;4.72;1.77;;;7.70;53.60;;;;;;4887918;29;20061;-89
2021/11/10 05:47:12;;;;;;;2.53;1.30;;;7.70;53.60;;;;;;4885728;29;20150;-91
2021/11/10 05:49:38;;;;;;;2.90;1.50;;;7.70;53.60;;;;;;4868681;29;20041;-88
2021/11/10 05:52:05;;;;;;;4.68;1.90;;;7.70;53.80;;;;;;4884282;29;20040;-87
2021/11/10 05:54:31;;;;;;;2.25;1.50;;;7.80;54.70;;;;;;4884456;29;20081;-86
2021/11/10 05:56:57;;;;;;;4.45;1.58;;;7.80;54.50;;;;;;4883989;29;20481;-87
2021/11/10 05:59:23;;;;;;;7.78;2.13;;;7.80;54.20;;;;;;4890872;29;20043;-84
2021/11/10 06:01:49;;;;;;;1.88;1.60;;;7.80;54.00;;;;;;4884161;29;20091;-88
2021/11/10 06:04:15;;;;;;;5.70;1.77;;;7.80;53.80;;;;;;4867854;29;20393;-85
2021/11/10 06:06:41;;;;;;;4.40;1.77;;;7.80;53.60;;;;;;4884463;29;20072;-87
2021/11/10 06:09:07;;;;;;;6.32;2.47;;;7.80;53.70;;;;;;4883912;29;20037;-86
2021/11/10 06:11:33;;;;;;;2.35;1.48;;;7.80;53.50;;;;;;4882870;29;20408;-87
2021/11/10 06:13:59;;;;;;;3.67;1.67;;;7.80;53.40;;;;;;4883406;29;20037;-88
2021/11/10 06:16:26;;;;;;;2.42;1.67;;;7.90;53.40;;;;;;4885470;29;20052;-85
2021/11/10 06:18:52;;;;;;;10.38;2.80;;;7.90;53.20;;;;;;4878669;29;20036;-86
2021/11/10 06:21:18;;;;;;;18.30;2.65;;;8.00;53.40;;;;;;4902728;29;20380;-87
2021/11/10 06:23:43;;;;;;;6.20;2.00;;;8.00;53.10;;;;;;4869268;29;20033;-85
2021/11/10 06:26:09;;;;;;;6.90;2.45;;;8.10;53.00;;;;;;4885131;29;20076;-86
2021/11/10 06:28:36;;;;;;;5.22;2.03;;;8.30;53.00;;;;;;4885309;29;20062;-86
2021/11/10 06:31:01;;;;;;;8.38;2.83;;;8.40;52.80;;;;;;4885308;29;20036;-86
2021/11/10 06:33:28;;;;;;;5.13;1.90;;;8.50;52.70;;;;;;4901055;29;20539;-84
2021/11/10 06:35:54;;;;;;;3.83;1.95;;;8.60;52.60;;;;;;4902511;29;20620;-88
2021/11/10 06:38:20;;;;;;;3.75;1.90;;;8.60;52.40;;;;;;4902856;29;20130;-87
2021/11/10 06:40:46;;;;;;;2.53;1.90;;;8.60;52.20;;;;;;4902135;29;20048;-87
2021/11/10 06:43:12;;;;;;;4.95;1.80;;;8.60;52.30;;;;;;4885978;29;20123;-86
2021/11/10 06:45:37;;;;;;;8.15;1.98;;;8.70;52.30;;;;;;4902099;29;20119;-88
2021/11/10 06:48:04;;;;;;;4.63;1.90;;;8.60;52.20;;;;;;4901328;29;20047;-86
2021/11/10 06:50:30;;;;;;;2.72;1.92;;;8.70;52.30;;;;;;4906978;29;20087;-86
2021/11/10 06:52:56;;;;;;;3.17;1.83;;;8.60;52.20;;;;;;4899268;29;20068;-86
2021/11/10 06:55:22;;;;;;;3.75;2.00;;;8.60;52.10;;;;;;4908354;29;20070;-87
2021/11/10 06:57:48;;;;;;;4.25;1.60;;;8.60;52.10;;;;;;4913541;29;20039;-87
2021/11/10 07:00:15;;;;;;;3.92;1.88;;;8.60;52.10;;;;;;4911645;29;20040;-86
2021/11/10 07:02:42;;;;;;;3.42;1.83;;;8.70;52.20;;;;;;4916481;29;20063;-87
2021/11/10 07:05:08;;;;;;;5.65;1.75;;;8.70;52.10;;;;;;4905891;29;20079;-87
2021/11/10 07:07:34;;;;;;;3.28;1.88;;;8.80;52.10;;;;;;4912149;29;20028;-85
2021/11/10 07:10:02;;;;;;;4.13;1.92;;;8.90;52.40;;;;;;4897879;29;20068;-87
2021/11/10 07:12:37;;;;;;;2.85;1.92;;;9.00;52.30;;;;;;4910932;29;20109;-86
2021/11/10 07:15:03;;;;;;;2.50;1.80;;;9.10;52.60;;;;;;4891734;29;20107;-88
2021/11/10 07:17:30;;;;;;;4.90;1.52;;;9.20;51.90;;;;;;4908097;29;20036;-84
2021/11/10 07:19:56;;;;;;;6.53;1.88;;;9.30;52.00;;;;;;4903594;29;20036;-85
2021/11/10 07:22:23;;;;;;;7.40;1.80;;;9.30;52.00;;;;;;4900490;29;20043;-84
2021/11/10 07:24:49;;;;;;;3.72;1.70;;;9.40;51.70;;;;;;4872343;29;20036;-83
2021/11/10 07:27:15;;;;;;;2.30;1.67;;;9.50;51.90;;;;;;4884675;29;20518;-84
2021/11/10 07:29:41;;;;;;;5.35;1.67;;;9.60;52.00;;;;;;4899318;29;20035;-84
2021/11/10 07:32:07;;;;;;;3.50;1.33;;;9.70;51.60;;;;;;4901109;29;20039;-82
2021/11/10 07:34:34;;;;;;;4.10;1.50;;;9.70;51.80;;;;;;4900143;29;20039;-83
2021/11/10 07:37:00;;;;;;;3.78;1.65;;;9.80;51.60;;;;;;4900252;29;20047;-82
2021/11/10 07:39:28;;;;;;;4.78;1.65;;;9.80;51.40;;;;;;4883293;29;20032;-82
2021/11/10 07:41:54;;;;;;;3.67;1.88;;;9.70;50.90;;;;;;4901230;29;20040;-84
2021/11/10 07:44:23;;;;;;;4.43;2.10;;;9.80;50.60;;;;;;4867971;29;20124;-84
2021/11/10 07:46:55;;;;;;;5.47;2.00;;;9.70;50.60;;;;;;4883792;29;20032;-83
2021/11/10 07:49:22;;;;;;;2.50;1.90;;;9.80;50.60;;;;;;4884244;29;20055;-83
2021/11/10 07:51:49;;;;;;;3.97;1.65;;;9.80;50.80;;;;;;4900415;29;20042;-82
2021/11/10 07:54:15;;;;;;;6.15;1.80;;;9.90;50.70;;;;;;4899394;29;20065;-84
2021/11/10 07:56:42;;;;;;;3.22;1.67;;;9.90;50.50;;;;;;4883790;29;20095;-85
2021/11/10 07:59:08;;;;;;;3.42;1.80;;;9.90;50.70;;;;;;4899547;29;20531;-82
2021/11/10 08:01:34;;;;;;;2.28;1.67;;;10.00;51.20;;;;;;4883544;29;20038;-83
2021/11/10 08:04:03;;;;;;;2.50;1.67;;;10.00;51.20;;;;;;4900319;29;20488;-82
2021/11/10 08:06:30;;;;;;;4.57;1.92;;;10.10;51.30;;;;;;4900865;29;20096;-83
2021/11/10 08:08:56;;;;;;;5.72;1.65;;;10.10;51.40;;;;;;4900216;29;20459;-84
2021/11/10 08:11:22;;;;;;;2.08;1.50;;;10.10;51.30;;;;;;4900188;29;20091;-84
2021/11/10 08:13:48;;;;;;;4.43;2.15;;;10.10;51.30;;;;;;4900388;29;20040;-82
2021/11/10 08:16:14;;;;;;;5.43;1.67;;;10.10;50.90;;;;;;4900469;29;20048;-85
2021/11/10 08:18:40;;;;;;;2.47;1.60;;;10.10;50.40;;;;;;4900275;29;20046;-83
2021/11/10 08:21:06;;;;;;;5.28;2.35;;;10.10;50.40;;;;;;4900713;29;20131;-83
2021/11/10 08:23:32;;;;;;;2.53;1.60;;;10.10;50.50;;;;;;4886787;29;20503;-84
2021/11/10 08:25:58;;;;;;;7.18;2.30;;;10.10;50.40;;;;;;4883376;29;20040;-83
2021/11/10 08:28:26;;;;;;;4.72;1.60;;;10.10;50.30;;;;;;4900231;29;20041;-83
2021/11/10 08:30:54;;;;;;;5.22;1.70;;;10.10;50.30;;;;;;4900143;29;20388;-82
2021/11/10 08:33:20;;;;;;;4.32;2.00;;;10.10;50.30;;;;;;4899424;29;20044;-84
2021/11/10 08:35:47;;;;;;;3.33;2.78;;;10.10;50.30;;;;;;4882976;29;20119;-82
2021/11/10 08:38:14;;;;;;;3.55;2.38;;;10.10;50.30;;;;;;4900408;29;20119;-83
2021/11/10 08:40:41;;;;;;;6.82;2.25;;;10.10;50.20;;;;;;4899416;29;20503;-84
2021/11/10 08:43:12;;;;;;;3.95;1.90;;;10.00;50.20;;;;;;4900144;29;20130;-83
2021/11/10 08:45:40;;;;;;;6.78;2.17;;;10.00;50.20;;;;;;4883280;29;20496;-85
2021/11/10 08:48:06;;;;;;;3.65;2.25;;;10.00;50.30;;;;;;4902194;29;20584;-82
2021/11/10 08:50:36;;;;;;;6.05;2.45;;;10.00;50.40;;;;;;4886563;29;20411;-86
2021/11/10 08:53:03;;;;;;;8.30;2.28;;;10.00;50.30;;;;;;4886848;29;20127;-85
2021/11/10 08:55:30;;;;;;;5.18;2.17;;;10.00;50.40;;;;;;4875110;29;20039;-83
2021/11/10 08:57:56;;;;;;;4.60;2.30;;;9.90;50.40;;;;;;4902721;29;20033;-84
2021/11/10 09:00:26;;;;;;;5.22;2.60;;;9.90;50.50;;;;;;4903534;29;20624;-84
2021/11/10 09:02:52;;;;;;;8.57;2.33;;;9.90;50.50;;;;;;4903158;29;20518;-83
2021/11/10 09:05:19;;;;;;;7.90;2.85;;;9.90;50.50;;;;;;4902521;29;20032;-84
2021/11/10 09:07:45;;;;;;;6.25;2.92;;;10.00;51.10;;;;;;4903715;29;20032;-81
2021/11/10 09:10:15;;;;;;;5.57;2.28;;;9.90;50.50;;;;;;4903276;29;20036;-84
2021/11/10 09:12:42;;;;;;;3.70;2.53;;;9.90;50.60;;;;;;4902517;29;20036;-85
2021/11/10 09:15:12;;;;;;;8.07;2.97;;;9.90;50.60;;;;;;4885562;29;20524;-81
2021/11/10 09:17:40;;;;;;;7.60;2.55;;;9.90;50.70;;;;;;4902555;29;20092;-85
2021/11/10 09:20:10;;;;;;;6.22;2.40;;;9.90;50.60;;;;;;4901908;29;20515;-83
2021/11/10 09:22:38;;;;;;;5.22;2.83;;;9.90;50.60;;;;;;4902232;29;20039;-85
2021/11/10 09:25:05;;;;;;;6.35;2.72;;;9.80;50.60;;;;;;4903400;29;20044;-83
2021/11/10 09:27:31;;;;;;;5.68;3.10;;;9.80;50.80;;;;;;4902116;29;20087;-82
2021/11/10 09:29:57;;;;;;;3.10;2.45;;;9.80;50.80;;;;;;4901681;29;20045;-85
2021/11/10 09:32:51;;;;;;;4.38;2.42;;;9.80;50.90;;;;;;4885487;29;20096;-81
2021/11/10 09:35:43;;;;;;;6.32;2.90;;;9.80;51.00;;;;;;4881241;29;20115;-85
2021/11/10 09:38:09;;;;;;;6.13;3.17;;;9.80;51.00;;;;;;4903140;29;20035;-84
2021/11/10 09:40:39;;;;;;;8.80;3.08;;;9.80;51.00;;;;;;4886881;29;20420;-84
2021/11/10 09:43:06;;;;;;;7.00;3.22;;;9.80;51.10;;;;;;4902972;29;20432;-83
2021/11/10 09:45:34;;;;;;;5.32;2.65;;;9.70;51.00;;;;;;4902460;29;20607;-83
2021/11/10 09:48:06;;;;;;;7.35;3.38;;;9.70;51.20;;;;;;4901764;29;20043;-84
2021/11/10 09:50:34;;;;;;;5.03;2.88;;;9.70;51.30;;;;;;4901869;29;20071;-84
2021/11/10 09:53:00;;;;;;;8.57;3.17;;;9.70;51.30;;;;;;4902847;29;20059;-84
2021/11/10 09:55:30;;;;;;;10.35;3.55;;;9.60;51.20;;;;;;4902047;29;20083;-83
2021/11/10 09:57:59;;;;;;;7.80;3.22;;;9.70;51.50;;;;;;4901063;29;20029;-84
2021/11/10 10:00:29;;;;;;;6.60;2.90;;;9.60;52.10;;;;;;4902423;29;20661;-82
2021/11/10 10:02:56;;;;;;;10.30;3.10;;;9.60;51.60;;;;;;4903330;29;20036;-83
2021/11/10 10:05:26;;;;;;;7.68;3.17;;;9.60;51.60;;;;;;4902389;29;20479;-84
2021/11/10 10:07:53;;;;;;;6.78;3.05;;;9.60;51.80;;;;;;4901529;29;20423;-82
2021/11/10 10:10:20;;;;;;;7.78;3.05;;;9.50;51.50;;;;;;4901865;29;20042;-84
2021/11/10 10:12:52;;;;;;;6.20;3.05;;;9.50;51.70;;;;;;4884544;29;20097;-82
2021/11/10 10:15:19;;;;;;;4.05;3.08;;;9.50;51.70;;;;;;4901844;29;20056;-85
2021/11/10 10:17:47;;;;;;;8.15;3.30;;;9.50;51.90;;;;;;4903460;29;20029;-81
2021/11/10 10:20:25;;;;;;;6.68;3.42;;;9.50;52.00;;;;;;4902104;29;20068;-83
2021/11/10 10:22:53;;;;;;;6.90;3.20;;;9.50;52.00;;;;;;4901493;29;20040;-83
2021/11/10 10:25:20;;;;;;;9.48;3.05;;;9.40;52.10;;;;;;4902988;29;20124;-82
2021/11/10 10:28:15;;;;;;;5.32;2.70;;;9.40;52.10;;;;;;4901835;29;20040;-82
2021/11/10 10:30:50;;;;;;;5.05;3.03;;;9.40;52.10;;;;;;4898966;29;20044;-83
2021/11/10 10:33:19;;;;;;;7.05;2.92;;;9.40;52.20;;;;;;4901268;29;20036;-84
2021/11/10 10:35:53;;;;;;;5.85;2.65;;;9.40;52.40;;;;;;4901817;29;20040;-83
2021/11/10 10:38:24;;;;;;;5.72;3.30;;;9.40;52.30;;;;;;4901038;29;20051;-84
2021/11/10 10:40:55;;;;;;;5.90;2.80;;;9.40;52.40;;;;;;4901552;29;20551;-83
2021/11/10 10:43:23;;;;;;;5.63;2.85;;;9.40;52.40;;;;;;4902044;29;20414;-83
2021/11/10 10:45:52;;;;;;;6.57;3.15;;;9.40;52.50;;;;;;4889603;29;20047;-82
2021/11/10 10:48:26;;;;;;;4.53;3.13;;;9.40;52.50;;;;;;4911305;29;20040;-84
2021/11/10 10:50:58;;;;;;;5.13;3.20;;;9.30;52.60;;;;;;4904938;29;20126;-84
2021/11/10 10:53:38;;;;;;;5.78;3.25;;;9.30;52.60;;;;;;4888968;29;20038;-85
2021/11/10 10:56:27;;;;;;;6.07;3.53;;;9.40;52.70;;;;;;4903894;29;20039;-83
2021/11/10 10:59:01;;;;;;;5.57;2.90;;;9.30;53.40;;;;;;4902182;29;20040;-84
2021/11/10 11:01:38;;;;;;;5.97;2.70;;;9.40;53.20;;;;;;4900465;29;20066;-83
2021/11/10 11:04:16;;;;;;;5.05;3.20;;;9.30;53.10;;;;;;4902303;29;20907;-83
2021/11/10 11:06:48;;;;;;;4.45;2.67;;;9.40;53.30;;;;;;4900361;29;20027;-85
2021/11/10 11:10:07;;;;;;;4.65;3.28;;;9.40;53.10;;;;;;4900194;29;20119;-84
2021/11/10 11:12:54;;;;;;;9.85;2.85;;;9.30;52.90;;;;;;4847098;29;20055;-84
2021/11/10 11:15:26;;;;;;;3.55;2.63;;;9.30;53.00;;;;;;4863973;29;20418;-84
2021/11/10 11:18:31;;;;;;;4.72;2.60;;;9.30;53.00;;;;;;4881335;29;20063;-84
2021/11/10 11:21:57;;;;;;;4.88;2.75;;;9.30;53.00;;;;;;4815541;29;20086;-85
2021/11/10 11:36:03;;;;;;;4.65;2.58;;;9.30;53.00;;;;;;4761459;30;20116;-85
2021/11/10 11:38:34;;;;;;;4.28;2.70;;;9.20;53.10;;;;;;4760413;30;20047;-83
2021/11/10 11:41:03;;;;;;;5.55;3.22;;;9.20;53.00;;;;;;4761128;30;20031;-85
2021/11/10 11:43:35;;;;;;;6.57;2.90;;;9.20;53.00;;;;;;4766055;29;20063;-87
2021/11/10 11:46:17;;;;;;;5.05;2.95;;;9.20;53.10;;;;;;4828165;29;20053;-85
2021/11/10 11:49:08;;;;;;;6.63;3.03;;;9.20;52.90;;;;;;4817894;29;20034;-84
2021/11/10 11:51:58;;;;;;;5.25;3.10;;;9.20;53.00;;;;;;4869481;29;20048;-84
2021/11/10 11:54:27;;;;;;;5.38;3.17;;;9.20;53.00;;;;;;4880896;29;20040;-83
2021/11/10 12:01:10;;;;;;;8.18;2.85;;;9.20;53.10;;;;;;4735922;30;20135;-83
2021/11/10 12:03:41;;;;;;;6.88;2.83;;;9.20;52.90;;;;;;4732673;30;20053;-86
2021/11/10 12:06:08;;;;;;;6.25;2.92;;;9.20;52.80;;;;;;4733149;30;20584;-82
2021/11/10 12:08:52;;;;;;;5.13;2.97;;;9.20;52.90;;;;;;4731970;30;20128;-85
2021/11/10 12:11:37;;;;;;;7.30;2.65;;;9.20;52.80;;;;;;4809073;29;20516;-84
2021/11/10 12:14:18;;;;;;;6.60;2.80;;;9.20;52.80;;;;;;4881378;29;20103;-84
2021/11/10 12:16:55;;;;;;;6.05;2.80;;;9.20;52.70;;;;;;4899199;29;20044;-86
2021/11/10 12:19:35;;;;;;;5.05;2.80;;;9.20;52.70;;;;;;4899724;29;20500;-85
2021/11/10 12:22:03;;;;;;;4.70;2.75;;;9.20;52.80;;;;;;4901985;29;20043;-84
2021/11/10 12:24:48;;;;;;;5.55;3.25;;;9.20;52.80;;;;;;4903192;29;20047;-84
2021/11/10 12:27:19;;;;;;;7.57;2.70;;;9.20;53.00;;;;;;4904431;29;20040;-85
2021/11/10 12:29:56;;;;;;;5.63;2.60;;;9.20;52.80;;;;;;4887270;29;20140;-81
2021/11/10 12:32:25;;;;;;;4.18;2.67;;;9.20;52.80;;;;;;4878209;29;20457;-86
2021/11/10 12:34:55;;;;;;;5.25;2.85;;;9.20;52.70;;;;;;4904629;29;20036;-85
2021/11/10 12:37:32;;;;;;;7.60;2.45;;;9.20;52.70;;;;;;4877615;29;20036;-82
2021/11/10 12:40:13;;;;;;;6.38;2.70;;;9.10;52.50;;;;;;4903206;29;20075;-83
2021/11/10 12:42:57;;;;;;;4.00;2.10;;;9.10;52.40;;;;;;4902368;29;20062;-85
2021/11/10 12:45:32;;;;;;;5.40;2.67;;;9.20;52.60;;;;;;4887332;29;20087;-84
2021/11/10 12:48:26;;;;;;;3.97;2.47;;;9.10;52.60;;;;;;4903411;29;20115;-82
2021/11/10 12:50:53;;;;;;;3.90;2.47;;;9.20;52.60;;;;;;4896263;29;20044;-83
2021/11/10 12:53:36;;;;;;;5.50;2.40;;;9.10;52.70;;;;;;4902466;29;20127;-84
2021/11/10 12:56:03;;;;;;;6.60;2.60;;;9.10;52.70;;;;;;4903959;29;20154;-83
2021/11/10 12:58:29;;;;;;;8.85;2.35;;;9.20;52.50;;;;;;4903709;29;20044;-83
2021/11/10 13:01:07;;;;;;;6.25;2.17;;;9.10;52.60;;;;;;4889008;29;20040;-84
2021/11/10 13:03:35;;;;;;;5.15;2.47;;;9.10;52.40;;;;;;4922253;29;20091;-84
2021/11/10 13:06:12;;;;;;;3.75;2.22;;;9.10;52.50;;;;;;4921313;29;20131;-80
2021/11/10 13:08:55;;;;;;;4.38;2.10;;;9.10;52.50;;;;;;4913183;29;20040;-84
2021/11/10 13:11:25;;;;;;;3.95;2.22;;;9.10;52.40;;;;;;4915315;29;20049;-81
2021/11/10 13:14:04;;;;;;;5.47;2.53;;;9.10;52.40;;;;;;4903032;29;20531;-83
2021/11/10 13:16:30;;;;;;;9.45;2.08;;;9.10;52.50;;;;;;4893963;29;20120;-83
2021/11/10 13:18:56;;;;;;;6.45;2.20;;;9.10;52.40;;;;;;4917359;29;20056;-84
2021/11/10 13:21:23;;;;;;;6.50;2.20;;;9.00;52.30;;;;;;4917679;29;20051;-80
2021/11/10 13:24:04;;;;;;;6.95;2.90;;;9.00;52.20;;;;;;4906083;29;20036;-83
2021/11/10 13:26:29;;;;;;;4.07;2.00;;;9.00;52.10;;;;;;4919259;29;20044;-84
2021/11/10 13:28:56;;;;;;;3.95;1.88;;;9.00;52.20;;;;;;4903791;29;20420;-85
2021/11/10 13:31:22;;;;;;;6.00;2.80;;;9.00;52.00;;;;;;4904377;29;20576;-80
2021/11/10 13:33:48;;;;;;;3.75;2.00;;;9.00;52.00;;;;;;4902851;29;20044;-83
2021/11/10 13:36:20;;;;;;;4.97;2.75;;;9.00;51.80;;;;;;4903446;29;20029;-85